AVA9461 SKBG-SKBO
Flight info
| Callsign | AVA9461 |
|---|---|
| Flight time | 0h 33m |
| Altitude | 22000 |
| Route | UMKAG1B UMKAG Z010 AKSOK G431 ILSEV ILSEV5E |
| Aircraft | A320/M-SDE3FGHIRWY/LB1 |
Departure
| Time | 2026-04-25 13:40 |
|---|---|
| Airport | Palonegro Airport (SKBG) |
Arrival
| Time | 2026-04-25 14:13 |
|---|---|
| Airport | El Dorado International Airport (SKBO) |
| Time | Latitude | Longitude | Altitude | Speed | Heading |
|---|---|---|---|---|---|
| 2026-04-25 13:07 | 7.12748 | -73.18233 | 3905 ft | 0 kts | 10° |
| 2026-04-25 13:27 | 7.12740 | -73.18235 | 3905 ft | 4 kts | 11° |
| 2026-04-25 13:27 | 7.12714 | -73.18239 | 3902 ft | 4 kts | 360° |
| 2026-04-25 13:28 | 7.12696 | -73.18235 | 3903 ft | 4 kts | 281° |
| 2026-04-25 13:28 | 7.12697 | -73.18241 | 3902 ft | 4 kts | 281° |
| 2026-04-25 13:28 | 7.12699 | -73.18253 | 3902 ft | 0 kts | 281° |
| 2026-04-25 13:32 | 7.12701 | -73.18264 | 3904 ft | 4 kts | 281° |
| 2026-04-25 13:33 | 7.12711 | -73.18315 | 3905 ft | 11 kts | 280° |
| 2026-04-25 13:33 | 7.12703 | -73.18385 | 3905 ft | 3 kts | 257° |
| 2026-04-25 13:33 | 7.12693 | -73.18428 | 3902 ft | 12 kts | 256° |
| 2026-04-25 13:33 | 7.12688 | -73.18481 | 3906 ft | 9 kts | 288° |
| 2026-04-25 13:34 | 7.12758 | -73.18518 | 3904 ft | 13 kts | 338° |
| 2026-04-25 13:34 | 7.12873 | -73.18562 | 3909 ft | 22 kts | 339° |
| 2026-04-25 13:34 | 7.13016 | -73.18615 | 3911 ft | 21 kts | 340° |
| 2026-04-25 13:34 | 7.13153 | -73.18667 | 3911 ft | 23 kts | 339° |
| 2026-04-25 13:35 | 7.13311 | -73.18726 | 3911 ft | 26 kts | 339° |
| 2026-04-25 13:35 | 7.13480 | -73.18790 | 3911 ft | 26 kts | 339° |
| 2026-04-25 13:35 | 7.13586 | -73.18859 | 3911 ft | 14 kts | 320° |
| 2026-04-25 13:35 | 7.13635 | -73.18871 | 3911 ft | 3 kts | 28° |
| 2026-04-25 13:36 | 7.13641 | -73.18850 | 3911 ft | 3 kts | 95° |
| 2026-04-25 13:36 | 7.13633 | -73.18847 | 3911 ft | 3 kts | 170° |
| 2026-04-25 13:36 | 7.13610 | -73.18838 | 3911 ft | 0 kts | 160° |
| 2026-04-25 13:39 | 7.13578 | -73.18826 | 3911 ft | 22 kts | 160° |
| 2026-04-25 13:40 | 7.13181 | -73.18678 | 3911 ft | 96 kts | 159° |
| 2026-04-25 13:40 | 7.12366 | -73.18370 | 3899 ft | 153 kts | 159° |
| 2026-04-25 13:40 | 7.11364 | -73.17991 | 4567 ft | 151 kts | 160° |
| 2026-04-25 13:40 | 7.10387 | -73.17615 | 5192 ft | 150 kts | 159° |
| 2026-04-25 13:41 | 7.09405 | -73.17237 | 5560 ft | 151 kts | 159° |
| 2026-04-25 13:41 | 7.08415 | -73.16854 | 5917 ft | 153 kts | 159° |
| 2026-04-25 13:41 | 7.07412 | -73.16469 | 6275 ft | 155 kts | 159° |
| 2026-04-25 13:41 | 7.06402 | -73.16081 | 6641 ft | 156 kts | 159° |
| 2026-04-25 13:42 | 7.05385 | -73.15691 | 6977 ft | 157 kts | 159° |
| 2026-04-25 13:42 | 7.04330 | -73.15286 | 7165 ft | 171 kts | 159° |
| 2026-04-25 13:42 | 7.03101 | -73.15082 | 7280 ft | 190 kts | 188° |
| 2026-04-25 13:42 | 7.01854 | -73.15691 | 7333 ft | 212 kts | 228° |
| 2026-04-25 13:43 | 7.01146 | -73.16985 | 7836 ft | 212 kts | 245° |
| 2026-04-25 13:43 | 7.00483 | -73.18319 | 8351 ft | 214 kts | 242° |
| 2026-04-25 13:43 | 6.99766 | -73.19637 | 8873 ft | 217 kts | 241° |
| 2026-04-25 13:43 | 6.99029 | -73.20980 | 9065 ft | 221 kts | 243° |
| 2026-04-25 13:44 | 6.98663 | -73.22458 | 9625 ft | 222 kts | 271° |
| 2026-04-25 13:44 | 6.98999 | -73.24021 | 9750 ft | 243 kts | 287° |
| 2026-04-25 13:44 | 6.99510 | -73.25735 | 9936 ft | 268 kts | 287° |
| 2026-04-25 13:44 | 7.00061 | -73.27609 | 10188 ft | 291 kts | 286° |
| 2026-04-25 13:45 | 7.00655 | -73.29642 | 10419 ft | 314 kts | 286° |
| 2026-04-25 13:45 | 7.01191 | -73.31854 | 10638 ft | 336 kts | 275° |
| 2026-04-25 13:45 | 7.00966 | -73.34219 | 11138 ft | 345 kts | 254° |
| 2026-04-25 13:45 | 7.00264 | -73.36542 | 11799 ft | 349 kts | 253° |
| 2026-04-25 13:46 | 6.99540 | -73.38885 | 12462 ft | 353 kts | 253° |
| 2026-04-25 13:46 | 6.98786 | -73.41247 | 13169 ft | 356 kts | 249° |
| 2026-04-25 13:46 | 6.97547 | -73.43414 | 13815 ft | 361 kts | 230° |
| 2026-04-25 13:46 | 6.95641 | -73.45064 | 14379 ft | 365 kts | 212° |
| 2026-04-25 13:47 | 6.93436 | -73.46359 | 14964 ft | 368 kts | 210° |
| 2026-04-25 13:47 | 6.91207 | -73.47648 | 15547 ft | 371 kts | 210° |
| 2026-04-25 13:47 | 6.88959 | -73.48944 | 16131 ft | 374 kts | 210° |
| 2026-04-25 13:47 | 6.86692 | -73.50251 | 16695 ft | 377 kts | 211° |
| 2026-04-25 13:48 | 6.84408 | -73.51569 | 17240 ft | 380 kts | 211° |
| 2026-04-25 13:48 | 6.82107 | -73.52898 | 17808 ft | 383 kts | 211° |
| 2026-04-25 13:48 | 6.79788 | -73.54241 | 18365 ft | 386 kts | 211° |
| 2026-04-25 13:48 | 6.77448 | -73.55601 | 18839 ft | 389 kts | 211° |
| 2026-04-25 13:49 | 6.75093 | -73.56969 | 19315 ft | 392 kts | 211° |
| 2026-04-25 13:49 | 6.72752 | -73.58328 | 19784 ft | 395 kts | 211° |
| 2026-04-25 13:49 | 6.70362 | -73.59712 | 20262 ft | 398 kts | 211° |
| 2026-04-25 13:49 | 6.67954 | -73.61104 | 20736 ft | 401 kts | 210° |
| 2026-04-25 13:50 | 6.65524 | -73.62507 | 21206 ft | 404 kts | 210° |
| 2026-04-25 13:50 | 6.63080 | -73.63920 | 21679 ft | 406 kts | 210° |
| 2026-04-25 13:50 | 6.60621 | -73.65344 | 21976 ft | 409 kts | 210° |
| 2026-04-25 13:50 | 6.58158 | -73.66771 | 22046 ft | 407 kts | 210° |
| 2026-04-25 13:51 | 6.55716 | -73.68188 | 22054 ft | 405 kts | 210° |
| 2026-04-25 13:51 | 6.53275 | -73.69604 | 22052 ft | 405 kts | 210° |
| 2026-04-25 13:51 | 6.50834 | -73.71017 | 22061 ft | 405 kts | 210° |
| 2026-04-25 13:51 | 6.48389 | -73.72428 | 22055 ft | 405 kts | 210° |
| 2026-04-25 13:52 | 6.45945 | -73.73838 | 22054 ft | 405 kts | 210° |
| 2026-04-25 13:52 | 6.43504 | -73.75251 | 22053 ft | 405 kts | 210° |
| 2026-04-25 13:52 | 6.41061 | -73.76668 | 22093 ft | 407 kts | 210° |
| 2026-04-25 13:52 | 6.38558 | -73.78123 | 22094 ft | 423 kts | 210° |
| 2026-04-25 13:53 | 6.35964 | -73.79627 | 22047 ft | 437 kts | 210° |
| 2026-04-25 13:53 | 6.33291 | -73.81176 | 22044 ft | 449 kts | 210° |
| 2026-04-25 13:53 | 6.30555 | -73.82758 | 22040 ft | 459 kts | 210° |
| 2026-04-25 13:53 | 6.27770 | -73.84366 | 22084 ft | 463 kts | 210° |
| 2026-04-25 13:54 | 6.24971 | -73.85982 | 22074 ft | 465 kts | 210° |
| 2026-04-25 13:54 | 6.22164 | -73.87601 | 22086 ft | 465 kts | 210° |
| 2026-04-25 13:54 | 6.19359 | -73.89222 | 22084 ft | 465 kts | 210° |
| 2026-04-25 13:54 | 6.16555 | -73.90845 | 22082 ft | 465 kts | 210° |
| 2026-04-25 13:55 | 6.13751 | -73.92468 | 22132 ft | 465 kts | 210° |
| 2026-04-25 13:55 | 6.10947 | -73.94091 | 22069 ft | 465 kts | 210° |
| 2026-04-25 13:55 | 6.08141 | -73.95711 | 22065 ft | 465 kts | 210° |
| 2026-04-25 13:55 | 6.05334 | -73.97330 | 22066 ft | 465 kts | 210° |
| 2026-04-25 13:56 | 6.02487 | -73.98881 | 22066 ft | 465 kts | 204° |
| 2026-04-25 13:56 | 5.99415 | -73.99903 | 22111 ft | 466 kts | 192° |
| 2026-04-25 13:56 | 5.96230 | -74.00515 | 22128 ft | 466 kts | 191° |
| 2026-04-25 13:56 | 5.93043 | -74.01113 | 22117 ft | 466 kts | 191° |
| 2026-04-25 13:57 | 5.89860 | -74.01714 | 22114 ft | 466 kts | 191° |
| 2026-04-25 13:57 | 5.88828 | -74.01910 | 22118 ft | 466 kts | 191° |
| 2026-04-25 13:57 | 5.83497 | -74.02928 | 22147 ft | 466 kts | 191° |
| 2026-04-25 13:57 | 5.80311 | -74.03535 | 22148 ft | 466 kts | 191° |
| 2026-04-25 13:58 | 5.77131 | -74.04139 | 22150 ft | 466 kts | 191° |
| 2026-04-25 13:58 | 5.73946 | -74.04743 | 22148 ft | 465 kts | 191° |
| 2026-04-25 13:58 | 5.70767 | -74.05346 | 22197 ft | 466 kts | 191° |
| 2026-04-25 13:58 | 5.67582 | -74.05949 | 22201 ft | 466 kts | 191° |
| 2026-04-25 13:59 | 5.64400 | -74.06555 | 22201 ft | 466 kts | 191° |
| 2026-04-25 13:59 | 5.61216 | -74.07160 | 22201 ft | 466 kts | 191° |
| 2026-04-25 13:59 | 5.58032 | -74.07765 | 22134 ft | 466 kts | 191° |
| 2026-04-25 13:59 | 5.54844 | -74.08368 | 22183 ft | 466 kts | 191° |
| 2026-04-25 14:00 | 5.51656 | -74.08971 | 22181 ft | 466 kts | 191° |
| 2026-04-25 14:00 | 5.48471 | -74.09574 | 22184 ft | 466 kts | 191° |
| 2026-04-25 14:00 | 5.45295 | -74.10216 | 22128 ft | 464 kts | 195° |
| 2026-04-25 14:00 | 5.42359 | -74.11384 | 21984 ft | 446 kts | 209° |
| 2026-04-25 14:01 | 5.39882 | -74.13147 | 21902 ft | 428 kts | 223° |
| 2026-04-25 14:01 | 5.37913 | -74.15250 | 21772 ft | 407 kts | 229° |
| 2026-04-25 14:01 | 5.36085 | -74.17322 | 21337 ft | 388 kts | 229° |
| 2026-04-25 14:01 | 5.34321 | -74.19323 | 20651 ft | 380 kts | 229° |
| 2026-04-25 14:02 | 5.32586 | -74.21294 | 19907 ft | 373 kts | 229° |
| 2026-04-25 14:02 | 5.30877 | -74.23231 | 19103 ft | 368 kts | 229° |
| 2026-04-25 14:02 | 5.29194 | -74.25137 | 18638 ft | 362 kts | 229° |
| 2026-04-25 14:02 | 5.28632 | -74.25772 | 18500 ft | 361 kts | 229° |
| 2026-04-25 14:03 | 5.25868 | -74.28907 | 17946 ft | 356 kts | 231° |
| 2026-04-25 14:03 | 5.24542 | -74.30940 | 17784 ft | 344 kts | 245° |
| 2026-04-25 14:03 | 5.23800 | -74.33162 | 17773 ft | 332 kts | 259° |
| 2026-04-25 14:03 | 5.23499 | -74.35447 | 17628 ft | 329 kts | 261° |
| 2026-04-25 14:04 | 5.22675 | -74.37554 | 17310 ft | 327 kts | 234° |
| 2026-04-25 14:04 | 5.21057 | -74.39134 | 17064 ft | 327 kts | 214° |
| 2026-04-25 14:04 | 5.19004 | -74.40082 | 16811 ft | 325 kts | 195° |
| 2026-04-25 14:04 | 5.16769 | -74.40370 | 16450 ft | 325 kts | 184° |
| 2026-04-25 14:05 | 5.14512 | -74.40480 | 16057 ft | 325 kts | 184° |
| 2026-04-25 14:05 | 5.12256 | -74.40588 | 15711 ft | 325 kts | 184° |
| 2026-04-25 14:05 | 5.09986 | -74.40694 | 15329 ft | 334 kts | 183° |
| 2026-04-25 14:05 | 5.07638 | -74.40804 | 15004 ft | 336 kts | 184° |
| 2026-04-25 14:06 | 5.05325 | -74.40910 | 14636 ft | 333 kts | 184° |
| 2026-04-25 14:06 | 5.02959 | -74.41019 | 13970 ft | 346 kts | 184° |
| 2026-04-25 14:06 | 5.00550 | -74.41133 | 13627 ft | 347 kts | 184° |
| 2026-04-25 14:06 | 4.98146 | -74.41246 | 13300 ft | 345 kts | 184° |
| 2026-04-25 14:07 | 4.95755 | -74.41359 | 12873 ft | 342 kts | 183° |
| 2026-04-25 14:07 | 4.93417 | -74.41435 | 12753 ft | 330 kts | 178° |
| 2026-04-25 14:07 | 4.91229 | -74.40996 | 12787 ft | 315 kts | 160° |
| 2026-04-25 14:07 | 4.89948 | -74.40366 | 12805 ft | 305 kts | 148° |
| 2026-04-25 14:08 | 4.88314 | -74.39085 | 12814 ft | 292 kts | 141° |
| 2026-04-25 14:08 | 4.86850 | -74.37755 | 12835 ft | 276 kts | 133° |
| 2026-04-25 14:08 | 4.85673 | -74.36296 | 12805 ft | 263 kts | 127° |
| 2026-04-25 14:08 | 4.84595 | -74.34827 | 12574 ft | 261 kts | 126° |
| 2026-04-25 14:09 | 4.83180 | -74.32940 | 12160 ft | 250 kts | 127° |
| 2026-04-25 14:09 | 4.82480 | -74.32015 | 11958 ft | 244 kts | 127° |
| 2026-04-25 14:09 | 4.81469 | -74.30681 | 11665 ft | 238 kts | 127° |
| 2026-04-25 14:09 | 4.80817 | -74.29820 | 11515 ft | 230 kts | 127° |
| 2026-04-25 14:10 | 4.79551 | -74.28148 | 11100 ft | 217 kts | 127° |
| 2026-04-25 14:10 | 4.78684 | -74.27003 | 10877 ft | 196 kts | 126° |
| 2026-04-25 14:10 | 4.77895 | -74.25960 | 10639 ft | 180 kts | 126° |
| 2026-04-25 14:10 | 4.77162 | -74.24992 | 10440 ft | 170 kts | 126° |
| 2026-04-25 14:11 | 4.76457 | -74.24061 | 10232 ft | 166 kts | 127° |
| 2026-04-25 14:11 | 4.75764 | -74.23145 | 10018 ft | 164 kts | 127° |
| 2026-04-25 14:11 | 4.75077 | -74.22238 | 9812 ft | 163 kts | 127° |
| 2026-04-25 14:11 | 4.74392 | -74.21332 | 9585 ft | 163 kts | 127° |
| 2026-04-25 14:12 | 4.73707 | -74.20428 | 9347 ft | 163 kts | 126° |
| 2026-04-25 14:12 | 4.73023 | -74.19524 | 9100 ft | 162 kts | 126° |
| 2026-04-25 14:12 | 4.72341 | -74.18624 | 8849 ft | 162 kts | 124° |
| 2026-04-25 14:12 | 4.71665 | -74.17731 | 8618 ft | 160 kts | 125° |
| 2026-04-25 14:13 | 4.70997 | -74.16847 | 8406 ft | 158 kts | 124° |
| 2026-04-25 14:13 | 4.70393 | -74.16033 | 8372 ft | 123 kts | 127° |
| 2026-04-25 14:13 | 4.69976 | -74.15488 | 8372 ft | 77 kts | 127° |
| 2026-04-25 14:13 | 4.69751 | -74.15181 | 8374 ft | 34 kts | 114° |
| 2026-04-25 14:14 | 4.69725 | -74.15043 | 8373 ft | 11 kts | 98° |
| 2026-04-25 14:14 | 4.69716 | -74.14980 | 8373 ft | 7 kts | 98° |
| 2026-04-25 14:14 | 4.69714 | -74.14969 | 8373 ft | 0 kts | 98° |
| 2026-04-25 14:16 | 4.69714 | -74.14964 | 8372 ft | 0 kts | 98° |
| 2026-04-25 14:17 | 4.69711 | -74.14949 | 8372 ft | 3 kts | 98° |
| 2026-04-25 14:17 | 4.69706 | -74.14908 | 8372 ft | 8 kts | 97° |
| 2026-04-25 14:17 | 4.69716 | -74.14857 | 8373 ft | 7 kts | 67° |
| 2026-04-25 14:17 | 4.69750 | -74.14822 | 8373 ft | 9 kts | 37° |
| 2026-04-25 14:18 | 4.69814 | -74.14773 | 8373 ft | 13 kts | 37° |
| 2026-04-25 14:18 | 4.69852 | -74.14720 | 8373 ft | 9 kts | 99° |
| 2026-04-25 14:18 | 4.69807 | -74.14655 | 8373 ft | 14 kts | 127° |
| 2026-04-25 14:18 | 4.69748 | -74.14578 | 8373 ft | 12 kts | 127° |
| 2026-04-25 14:19 | 4.69729 | -74.14530 | 8373 ft | 5 kts | 68° |
| 2026-04-25 14:19 | 4.69754 | -74.14511 | 8373 ft | 3 kts | 31° |
| 2026-04-25 14:19 | 4.69764 | -74.14504 | 8373 ft | 0 kts | 35° |